This is the latest recevied weather packets stored in our database for station/object N2QDK-2. If no packets are shown the sender has not sent any weather packets the latest 10 day(s).
| Time | Temp. | Humidity | Pressure | Rain* | Wind** | Luminosity | Snow |
|---|---|---|---|---|---|---|---|
| 1777871717 | 11.11° C | 59% | 1008.7 hPa | 0 mm | - | - | - |
| 1777871117 | 11.11° C | 58% | 1008.7 hPa | 0 mm | - | - | - |
| 1777870517 | 11.67° C | 58% | 1008.8 hPa | 0 mm | - | - | - |
| 1777869917 | 11.67° C | 57% | 1008.9 hPa | 0 mm | - | - | - |
| 1777869317 | 12.22° C | 56% | 1008.9 hPa | 0 mm | - | - | - |
| 1777868716 | 12.78° C | 55% | 1008.9 hPa | 0 mm | - | - | - |
| 1777868117 | 12.78° C | 54% | 1008.7 hPa | 0 mm | - | - | - |
| 1777867516 | 12.78° C | 55% | 1008.8 hPa | 0 mm | - | - | - |
| 1777866917 | 12.78° C | 55% | 1008.7 hPa | 0 mm | - | - | - |
| 1777866317 | 12.78° C | 56% | 1008.8 hPa | 0 mm | - | - | - |
| 1777865717 | 12.22° C | 56% | 1008.8 hPa | 0 mm | - | - | - |
| 1777865117 | 12.22° C | 56% | 1008.8 hPa | 0 mm | - | - | - |
| 1777864517 | 12.22° C | 56% | 1008.8 hPa | 0 mm | - | - | - |
| 1777863917 | 12.22° C | 57% | 1008.9 hPa | 0 mm | - | - | - |
| 1777863317 | 12.22° C | 58% | 1008.8 hPa | 0 mm | - | - | - |
| 1777862717 | 12.22° C | 58% | 1008.9 hPa | 0 mm | - | - | - |
| 1777862117 | 12.22° C | 60% | 1009 hPa | 0 mm | - | - | - |
| 1777861517 | 12.22° C | 60% | 1009.1 hPa | 0 mm | - | - | - |
| 1777860917 | 11.67° C | 61% | 1009.2 hPa | 0 mm | - | - | - |
| 1777860317 | 11.67° C | 64% | 1009.2 hPa | 0 mm | - | - | - |
| 1777859716 | 11.11° C | 68% | 1009.2 hPa | 0 mm | - | - | - |
| 1777859117 | 10.56° C | 70% | 1009.1 hPa | 0 mm | - | - | - |
| 1777858516 | 10° C | 75% | 1009.1 hPa | 0 mm | - | - | - |
| 1777857917 | 10° C | 79% | 1009.3 hPa | 0 mm | - | - | - |
| 1777857316 | 9.44° C | 86% | 1009.3 hPa | 0.25 mm | - | - | - |
* Rain latest hour (hover to see other rain measurements)
** Current wind speed in m/s (hover to see current wind gust speed)